sensor_id;sensor_type;location;lat;lon;timestamp;pressure;altitude;pressure_sealevel;temperature;humidity
53699;BME280;68408;53.952;27.612;2023-05-20T00:02:10;1024.7;;;13.6;46.2
53699;BME280;68408;53.952;27.612;2023-05-20T00:11:56;1024.7;;;13.7;45.6
53699;BME280;68408;53.952;27.612;2023-05-20T00:27:10;1024.8;;;13.5;45.7
53699;BME280;68408;53.952;27.612;2023-05-20T00:31:54;1024.8;;;13.5;45.7
53699;BME280;68408;53.952;27.612;2023-05-20T00:37:10;1024.8;;;13.4;45.6
53699;BME280;68408;53.952;27.612;2023-05-20T00:41:56;1024.9;;;13.4;45.8
53699;BME280;68408;53.952;27.612;2023-05-20T00:46:46;1024.9;;;13.3;45.9
53699;BME280;68408;53.952;27.612;2023-05-20T00:56:34;1025;;;13.3;46
53699;BME280;68408;53.952;27.612;2023-05-20T01:01:40;1025;;;13.3;46
53699;BME280;68408;53.952;27.612;2023-05-20T01:07:10;1025.1;;;13.2;46.2
53699;BME280;68408;53.952;27.612;2023-05-20T01:11:47;1025.1;;;13.2;46.4
53699;BME280;68408;53.952;27.612;2023-05-20T01:17:10;1025.2;;;13.2;46.6
53699;BME280;68408;53.952;27.612;2023-05-20T01:22:11;1025.2;;;13;47
53699;BME280;68408;53.952;27.612;2023-05-20T01:26:48;1025.1;;;12.9;47.2
53699;BME280;68408;53.952;27.612;2023-05-20T01:31:58;1025.1;;;12.7;47.6
53699;BME280;68408;53.952;27.612;2023-05-20T01:36:54;1025.1;;;12.7;47.8
53699;BME280;68408;53.952;27.612;2023-05-20T01:42:12;1025.2;;;12.6;48.1
53699;BME280;68408;53.952;27.612;2023-05-20T01:46:56;1025.2;;;12.6;48.2
53699;BME280;68408;53.952;27.612;2023-05-20T01:51:44;1025.2;;;12.5;48.4
53699;BME280;68408;53.952;27.612;2023-05-20T02:01:34;1025.3;;;12.5;49
53699;BME280;68408;53.952;27.612;2023-05-20T02:06:42;1025.2;;;12.5;48.9
53699;BME280;68408;53.952;27.612;2023-05-20T02:11:46;1025.2;;;12.5;49
53699;BME280;68408;53.952;27.612;2023-05-20T02:16:22;1025.2;;;12.6;49
53699;BME280;68408;53.952;27.612;2023-05-20T02:22:12;1025.2;;;12.6;49.1
53699;BME280;68408;53.952;27.612;2023-05-20T02:36:48;1025.3;;;13.2;48.3
53699;BME280;68408;53.952;27.612;2023-05-20T02:42:10;1025.3;;;14.1;46.6
53699;BME280;68408;53.952;27.612;2023-05-20T02:46:48;1025.3;;;15.3;44
53699;BME280;68408;53.952;27.612;2023-05-20T02:51:35;1025.4;;;16;42.8
53699;BME280;68408;53.952;27.612;2023-05-20T02:57:10;1025.3;;;16.7;41.6
53699;BME280;68408;53.952;27.612;2023-05-20T03:02:02;1025.4;;;16.1;42.3
53699;BME280;68408;53.952;27.612;2023-05-20T03:06:36;1025.4;;;15.6;43.1
53699;BME280;68408;53.952;27.612;2023-05-20T03:11:40;1025.4;;;15;43.8
53699;BME280;68408;53.952;27.612;2023-05-20T03:16:46;1025.5;;;14.4;45
53699;BME280;68408;53.952;27.612;2023-05-20T03:21:44;1025.6;;;14.3;45.4
53699;BME280;68408;53.952;27.612;2023-05-20T03:26:40;1025.6;;;14.2;45.7
53699;BME280;68408;53.952;27.612;2023-05-20T03:32:02;1025.6;;;14.2;45.7
53699;BME280;68408;53.952;27.612;2023-05-20T03:37:10;1025.6;;;14.2;45.8
53699;BME280;68408;53.952;27.612;2023-05-20T03:46:56;1025.6;;;14.5;45.7
53699;BME280;68408;53.952;27.612;2023-05-20T03:51:46;1025.7;;;14.6;45.4
53699;BME280;68408;53.952;27.612;2023-05-20T03:56:22;1025.8;;;14.7;45.3
53699;BME280;68408;53.952;27.612;2023-05-20T04:02:10;1025.8;;;14.7;45.2
53699;BME280;68408;53.952;27.612;2023-05-20T04:07:10;1025.8;;;14.7;45.1
53699;BME280;68408;53.952;27.612;2023-05-20T04:12:02;1025.8;;;14.8;45
53699;BME280;68408;53.952;27.612;2023-05-20T04:16:22;1025.9;;;15;45
53699;BME280;68408;53.952;27.612;2023-05-20T04:21:46;1025.8;;;15.1;44.7
53699;BME280;68408;53.952;27.612;2023-05-20T04:26:22;1025.8;;;15.1;44.6
53699;BME280;68408;53.952;27.612;2023-05-20T04:31:22;1025.8;;;15.4;44.2
53699;BME280;68408;53.952;27.612;2023-05-20T04:36:40;1025.7;;;15.6;43.9
53699;BME280;68408;53.952;27.612;2023-05-20T04:42:10;1025.7;;;16;43.2
53699;BME280;68408;53.952;27.612;2023-05-20T04:46:34;1025.7;;;16.2;42.7
53699;BME280;68408;53.952;27.612;2023-05-20T04:52:04;1025.7;;;16.4;42.3
53699;BME280;68408;53.952;27.612;2023-05-20T05:01:48;1025.7;;;16.4;42.1
53699;BME280;68408;53.952;27.612;2023-05-20T05:07:02;1025.7;;;16.6;41.4
53699;BME280;68408;53.952;27.612;2023-05-20T05:12:10;1025.7;;;16.7;41.4
53699;BME280;68408;53.952;27.612;2023-05-20T05:17:10;1025.8;;;16.7;41.3
53699;BME280;68408;53.952;27.612;2023-05-20T05:21:54;1025.8;;;16.8;41.1
53699;BME280;68408;53.952;27.612;2023-05-20T05:27:08;1025.8;;;16.7;40.8
53699;BME280;68408;53.952;27.612;2023-05-20T05:31:50;1025.8;;;16.7;41
53699;BME280;68408;53.952;27.612;2023-05-20T05:36:34;1025.8;;;16.9;40.9
53699;BME280;68408;53.952;27.612;2023-05-20T05:41:34;1025.8;;;17.2;40.5
53699;BME280;68408;53.952;27.612;2023-05-20T05:46:46;1025.8;;;17.1;40.2
53699;BME280;68408;53.952;27.612;2023-05-20T05:51:38;1025.8;;;17.1;40.6
53699;BME280;68408;53.952;27.612;2023-05-20T05:56:49;1025.8;;;17;41
53699;BME280;68408;53.952;27.612;2023-05-20T06:02:02;1025.8;;;16.8;40.5
53699;BME280;68408;53.952;27.612;2023-05-20T06:07:10;1025.8;;;16.8;40.4
53699;BME280;68408;53.952;27.612;2023-05-20T06:11:22;1025.8;;;16.8;40
53699;BME280;68408;53.952;27.612;2023-05-20T06:16:56;1025.8;;;16.8;40
53699;BME280;68408;53.952;27.612;2023-05-20T06:32:10;1025.8;;;17.2;38.9
53699;BME280;68408;53.952;27.612;2023-05-20T06:36:42;1025.8;;;17.2;38.2
53699;BME280;68408;53.952;27.612;2023-05-20T06:41:56;1025.8;;;17.3;37.6
53699;BME280;68408;53.952;27.612;2023-05-20T06:46:32;1025.8;;;17.2;37.5
53699;BME280;68408;53.952;27.612;2023-05-20T06:51:46;1025.8;;;17.3;37.5
53699;BME280;68408;53.952;27.612;2023-05-20T06:56:22;1025.8;;;17.5;37.3
53699;BME280;68408;53.952;27.612;2023-05-20T07:22:10;1025.8;;;17.6;36.4
53699;BME280;68408;53.952;27.612;2023-05-20T07:26:24;1025.9;;;17.7;35.4
53699;BME280;68408;53.952;27.612;2023-05-20T07:31:22;1025.8;;;17.6;35.6
53699;BME280;68408;53.952;27.612;2023-05-20T07:36:48;1025.7;;;17.7;35.5
53699;BME280;68408;53.952;27.612;2023-05-20T07:42:10;1025.8;;;17.7;35.6
53699;BME280;68408;53.952;27.612;2023-05-20T07:47:10;1025.7;;;17.7;35.6
53699;BME280;68408;53.952;27.612;2023-05-20T07:51:34;1025.7;;;17.8;35.8
53699;BME280;68408;53.952;27.612;2023-05-20T07:57:10;1025.6;;;18.1;35.4
53699;BME280;68408;53.952;27.612;2023-05-20T08:02:10;1025.5;;;18.4;35.1
53699;BME280;68408;53.952;27.612;2023-05-20T08:06:22;1025.5;;;18.3;34.5
53699;BME280;68408;53.952;27.612;2023-05-20T08:11:40;1025.6;;;18.3;34.5
53699;BME280;68408;53.952;27.612;2023-05-20T08:16:22;1025.6;;;18.4;34
53699;BME280;68408;53.952;27.612;2023-05-20T08:21:56;1025.6;;;18.4;33.6
53699;BME280;68408;53.952;27.612;2023-05-20T08:32:02;1025.6;;;18.4;32.2
53699;BME280;68408;53.952;27.612;2023-05-20T08:37:10;1025.5;;;18.4;32.1
53699;BME280;68408;53.952;27.612;2023-05-20T08:41:36;1025.5;;;18.6;32
53699;BME280;68408;53.952;27.612;2023-05-20T08:46:50;1025.3;;;18.8;31.8
53699;BME280;68408;53.952;27.612;2023-05-20T08:51:32;1025.3;;;19.1;30.9
53699;BME280;68408;53.952;27.612;2023-05-20T08:56:22;1025.3;;;19.2;30
53699;BME280;68408;53.952;27.612;2023-05-20T09:12:02;1025.3;;;19.7;28.9
53699;BME280;68408;53.952;27.612;2023-05-20T09:16:34;1025.1;;;19.8;28.6
53699;BME280;68408;53.952;27.612;2023-05-20T09:21:24;1025.1;;;19.9;26.8
53699;BME280;68408;53.952;27.612;2023-05-20T09:26:34;1025.1;;;19.9;27.9
53699;BME280;68408;53.952;27.612;2023-05-20T10:01:56;1024.8;;;20.8;23.3
53699;BME280;68408;53.952;27.612;2023-05-20T10:06:27;1024.9;;;21.1;22.3
53699;BME280;68408;53.952;27.612;2023-05-20T10:12:12;1025;;;20.8;20.9
53699;BME280;68408;53.952;27.612;2023-05-20T10:17:11;1025;;;20.7;21.1
53699;BME280;68408;53.952;27.612;2023-05-20T10:27:11;1024.9;;;21.1;21.4
53699;BME280;68408;53.952;27.612;2023-05-20T10:32:02;1024.8;;;21.5;21.6
53699;BME280;68408;53.952;27.612;2023-05-20T10:36:34;1024.8;;;21.4;21.5
53699;BME280;68408;53.952;27.612;2023-05-20T10:41:40;1024.8;;;21.2;21.6
53699;BME280;68408;53.952;27.612;2023-05-20T10:46:22;1024.7;;;21.2;21.7
53699;BME280;68408;53.952;27.612;2023-05-20T10:51:36;1024.6;;;21.2;22.5
53699;BME280;68408;53.952;27.612;2023-05-20T10:56:23;1024.5;;;21.3;22.7
53699;BME280;68408;53.952;27.612;2023-05-20T11:01:50;1024.4;;;21.3;22
53699;BME280;68408;53.952;27.612;2023-05-20T11:07:10;1024.5;;;21.2;21.5
53699;BME280;68408;53.952;27.612;2023-05-20T11:11:48;1024.4;;;21.2;22.4
53699;BME280;68408;53.952;27.612;2023-05-20T11:16:56;1024.4;;;21.4;23.1
53699;BME280;68408;53.952;27.612;2023-05-20T11:21:44;1024.4;;;21.4;23.2
53699;BME280;68408;53.952;27.612;2023-05-20T11:26:35;1024.4;;;21.3;23.4
53699;BME280;68408;53.952;27.612;2023-05-20T11:32:10;1024.3;;;21.3;23.6
53699;BME280;68408;53.952;27.612;2023-05-20T11:37:10;1024.3;;;21.4;23.2
53699;BME280;68408;53.952;27.612;2023-05-20T11:42:10;1024.3;;;21.5;22.2
53699;BME280;68408;53.952;27.612;2023-05-20T11:46:58;1024.3;;;21.7;22.6
53699;BME280;68408;53.952;27.612;2023-05-20T11:51:34;1024.3;;;21.7;22.8
53699;BME280;68408;53.952;27.612;2023-05-20T11:57:02;1024.3;;;21.8;22
53699;BME280;68408;53.952;27.612;2023-05-20T12:01:48;1024.3;;;21.8;21.2
53699;BME280;68408;53.952;27.612;2023-05-20T12:06:22;1024.2;;;21.8;21.2
53699;BME280;68408;53.952;27.612;2023-05-20T12:12:10;1024.2;;;21.8;21.6
53699;BME280;68408;53.952;27.612;2023-05-20T12:17:02;1024.1;;;21.8;21.9
53699;BME280;68408;53.952;27.612;2023-05-20T12:22:10;1024.1;;;21.9;21
53699;BME280;68408;53.952;27.612;2023-05-20T12:27:10;1024.1;;;21.8;20
53699;BME280;68408;53.952;27.612;2023-05-20T12:31:23;1024;;;21.9;20.4
53699;BME280;68408;53.952;27.612;2023-05-20T12:36:42;1024;;;22;20.2
53699;BME280;68408;53.952;27.612;2023-05-20T12:41:36;1023.9;;;22.2;19.9
53699;BME280;68408;53.952;27.612;2023-05-20T12:47:10;1023.8;;;22.5;19.8
53699;BME280;68408;53.952;27.612;2023-05-20T12:51:46;1023.7;;;22.8;20.1
53699;BME280;68408;53.952;27.612;2023-05-20T12:56:56;1023.7;;;23.1;19.8
53699;BME280;68408;53.952;27.612;2023-05-20T13:01:48;1023.7;;;23.1;19.5
53699;BME280;68408;53.952;27.612;2023-05-20T13:06:22;1023.7;;;23.1;19.1
53699;BME280;68408;53.952;27.612;2023-05-20T13:11:40;1023.7;;;23.1;18.9
53699;BME280;68408;53.952;27.612;2023-05-20T13:16:22;1023.6;;;23.1;19.1
53699;BME280;68408;53.952;27.612;2023-05-20T13:21:56;1023.6;;;23.3;18.3
53699;BME280;68408;53.952;27.612;2023-05-20T13:32:02;1023.6;;;23.3;17.7
53699;BME280;68408;53.952;27.612;2023-05-20T13:37:10;1023.5;;;23.4;17.9
53699;BME280;68408;53.952;27.612;2023-05-20T13:41:48;1023.4;;;23.6;18.2
53699;BME280;68408;53.952;27.612;2023-05-20T13:46:56;1023.3;;;23.7;18.6
53699;BME280;68408;53.952;27.612;2023-05-20T13:56:34;1023.4;;;23.2;18.8
53699;BME280;68408;53.952;27.612;2023-05-20T14:02:12;1023.5;;;23;18.8
53699;BME280;68408;53.952;27.612;2023-05-20T14:06:56;1023.5;;;22.8;19.1
53699;BME280;68408;53.952;27.612;2023-05-20T14:12:12;1023.4;;;22.6;19.6
53699;BME280;68408;53.952;27.612;2023-05-20T14:16:24;1023.4;;;22.6;19.9
53699;BME280;68408;53.952;27.612;2023-05-20T14:21:46;1023.3;;;22.8;19.7
53699;BME280;68408;53.952;27.612;2023-05-20T14:26:48;1023.2;;;23;19.7
53699;BME280;68408;53.952;27.612;2023-05-20T14:31:54;1023.2;;;23.1;20.1
53699;BME280;68408;53.952;27.612;2023-05-20T14:36:40;1023.2;;;23.1;20.2
53699;BME280;68408;53.952;27.612;2023-05-20T14:42:10;1023.1;;;23.2;20.5
53699;BME280;68408;53.952;27.612;2023-05-20T14:46:22;1023;;;23.4;20.4
53699;BME280;68408;53.952;27.612;2023-05-20T14:52:10;1023.1;;;22.8;20.7
53699;BME280;68408;53.952;27.612;2023-05-20T14:57:11;1023;;;22.3;21.2
53699;BME280;68408;53.952;27.612;2023-05-20T15:01:48;1023;;;22.4;21.3
53699;BME280;68408;53.952;27.612;2023-05-20T15:06:40;1023;;;22.7;21.2
53699;BME280;68408;53.952;27.612;2023-05-20T15:11:54;1023;;;22.8;21.4
53699;BME280;68408;53.952;27.612;2023-05-20T15:17:10;1023;;;22.7;21.9
53699;BME280;68408;53.952;27.612;2023-05-20T15:21:46;1023;;;22.5;22.1
53699;BME280;68408;53.952;27.612;2023-05-20T15:26:54;1022.9;;;22.6;22.2
53699;BME280;68408;53.952;27.612;2023-05-20T15:31:57;1023;;;22.3;22.3
53699;BME280;68408;53.952;27.612;2023-05-20T15:36:34;1023;;;22.2;22.6
53699;BME280;68408;53.952;27.612;2023-05-20T15:41:22;1023;;;22.3;22.5
53699;BME280;68408;53.952;27.612;2023-05-20T15:47:10;1022.8;;;22.3;22.1
53699;BME280;68408;53.952;27.612;2023-05-20T15:52:02;1022.8;;;22.4;22.3
53699;BME280;68408;53.952;27.612;2023-05-20T15:57:10;1022.8;;;22.4;22.4
53699;BME280;68408;53.952;27.612;2023-05-20T16:02:00;1022.8;;;22.3;22.3
53699;BME280;68408;53.952;27.612;2023-05-20T16:06:36;1022.8;;;22.2;22.8
53699;BME280;68408;53.952;27.612;2023-05-20T16:11:34;1022.8;;;22.1;23.1
53699;BME280;68408;53.952;27.612;2023-05-20T16:17:08;1022.8;;;22.1;23
53699;BME280;68408;53.952;27.612;2023-05-20T16:22:10;1022.8;;;22.1;23
53699;BME280;68408;53.952;27.612;2023-05-20T16:26:34;1022.8;;;21.7;23.2
53699;BME280;68408;53.952;27.612;2023-05-20T16:32:04;1022.8;;;21.8;23.3
53699;BME280;68408;53.952;27.612;2023-05-20T16:37:02;1022.8;;;21.8;23.4
53699;BME280;68408;53.952;27.612;2023-05-20T16:41:22;1022.8;;;21.6;23.7
53699;BME280;68408;53.952;27.612;2023-05-20T16:46:40;1022.9;;;21.2;24.1
53699;BME280;68408;53.952;27.612;2023-05-20T16:51:47;1022.9;;;20.9;25
53699;BME280;68408;53.952;27.612;2023-05-20T16:56:56;1022.9;;;20.7;25.8
53699;BME280;68408;53.952;27.612;2023-05-20T17:01:22;1023;;;20.5;26
53699;BME280;68408;53.952;27.612;2023-05-20T17:07:00;1022.9;;;20.4;26.4
53699;BME280;68408;53.952;27.612;2023-05-20T17:12:08;1022.9;;;20.2;26.5
53699;BME280;68408;53.952;27.612;2023-05-20T17:16:34;1022.9;;;20.1;26.8
53699;BME280;68408;53.952;27.612;2023-05-20T17:21:54;1022.8;;;20.1;27
53699;BME280;68408;53.952;27.612;2023-05-20T17:26:46;1022.8;;;20.2;27
53699;BME280;68408;53.952;27.612;2023-05-20T17:37:10;1022.7;;;20.4;26.7
53699;BME280;68408;53.952;27.612;2023-05-20T17:41:54;1022.6;;;20.4;26.5
53699;BME280;68408;53.952;27.612;2023-05-20T17:46:48;1022.7;;;20.3;26.7
53699;BME280;68408;53.952;27.612;2023-05-20T17:51:22;1022.6;;;20.1;27
53699;BME280;68408;53.952;27.612;2023-05-20T17:56:46;1022.6;;;19.9;27.3
53699;BME280;68408;53.952;27.612;2023-05-20T18:17:10;1022.7;;;19.1;28.6
53699;BME280;68408;53.952;27.612;2023-05-20T18:21:34;1022.8;;;19;28.7
53699;BME280;68408;53.952;27.612;2023-05-20T18:27:10;1022.8;;;18.7;29.2
53699;BME280;68408;53.952;27.612;2023-05-20T18:36:48;1022.9;;;18.4;29.7
53699;BME280;68408;53.952;27.612;2023-05-20T18:41:48;1022.9;;;18.3;30
53699;BME280;68408;53.952;27.612;2023-05-20T18:47:04;1022.9;;;18.2;30.2
53699;BME280;68408;53.952;27.612;2023-05-20T18:52:10;1022.9;;;18;30.4
53699;BME280;68408;53.952;27.612;2023-05-20T18:56:34;1022.9;;;17.9;30.7
53699;BME280;68408;53.952;27.612;2023-05-20T19:02:10;1022.9;;;17.9;30.9
53699;BME280;68408;53.952;27.612;2023-05-20T19:07:02;1022.9;;;17.7;31.1
53699;BME280;68408;53.952;27.612;2023-05-20T19:11:22;1022.9;;;17.6;31.5
53699;BME280;68408;53.952;27.612;2023-05-20T19:16:40;1022.9;;;17.5;31.6
53699;BME280;68408;53.952;27.612;2023-05-20T19:31:40;1023.1;;;17.1;32.6
53699;BME280;68408;53.952;27.612;2023-05-20T19:37:02;1023.1;;;17.1;32.6
53699;BME280;68408;53.952;27.612;2023-05-20T19:42:10;1023.1;;;16.9;33.1
53699;BME280;68408;53.952;27.612;2023-05-20T19:46:22;1023.1;;;16.8;33.4
53699;BME280;68408;53.952;27.612;2023-05-20T19:52:10;1023.1;;;16.7;33.6
53699;BME280;68408;53.952;27.612;2023-05-20T19:56:22;1023.1;;;16.7;33.9
53699;BME280;68408;53.952;27.612;2023-05-20T20:01:22;1023.1;;;16.6;34
53699;BME280;68408;53.952;27.612;2023-05-20T20:07:10;1023.1;;;16.5;34.2
53699;BME280;68408;53.952;27.612;2023-05-20T20:11:54;1023.1;;;16.4;34.6
53699;BME280;68408;53.952;27.612;2023-05-20T20:16:58;1023.2;;;16.3;34.7
53699;BME280;68408;53.952;27.612;2023-05-20T20:21:56;1023.2;;;16.3;34.9
53699;BME280;68408;53.952;27.612;2023-05-20T20:27:03;1023.2;;;16.3;34.9
53699;BME280;68408;53.952;27.612;2023-05-20T20:36:34;1023.2;;;16;35.8
53699;BME280;68408;53.952;27.612;2023-05-20T20:47:10;1023.2;;;15.8;36.4
53699;BME280;68408;53.952;27.612;2023-05-20T20:51:22;1023.3;;;15.6;37.1
53699;BME280;68408;53.952;27.612;2023-05-20T20:57:10;1023.3;;;15.6;37.1
53699;BME280;68408;53.952;27.612;2023-05-20T21:32:10;1023.1;;;14.6;39.9
53699;BME280;68408;53.952;27.612;2023-05-20T21:36:49;1023.1;;;14.5;40.2
53699;BME280;68408;53.952;27.612;2023-05-20T21:51:46;1023.1;;;14.3;41.3
53699;BME280;68408;53.952;27.612;2023-05-20T22:01:54;1023.1;;;14.1;41.2
53699;BME280;68408;53.952;27.612;2023-05-20T22:12:11;1023;;;13.9;41.8
53699;BME280;68408;53.952;27.612;2023-05-20T22:16:23;1023;;;13.9;41.8
53699;BME280;68408;53.952;27.612;2023-05-20T22:21:24;1022.9;;;13.8;42.1
53699;BME280;68408;53.952;27.612;2023-05-20T22:26:57;1022.9;;;13.8;42
53699;BME280;68408;53.952;27.612;2023-05-20T22:31:23;1022.8;;;13.8;42.1
53699;BME280;68408;53.952;27.612;2023-05-20T22:37:09;1022.9;;;13.7;42.4
53699;BME280;68408;53.952;27.612;2023-05-20T22:41:55;1022.9;;;13.6;42.3
53699;BME280;68408;53.952;27.612;2023-05-20T22:47:11;1022.9;;;13.6;42.3
53699;BME280;68408;53.952;27.612;2023-05-20T22:51:57;1022.8;;;13.6;42.3
53699;BME280;68408;53.952;27.612;2023-05-20T22:56:23;1022.8;;;13.6;42.2
53699;BME280;68408;53.952;27.612;2023-05-20T23:01:37;1022.8;;;13.6;42.3
53699;BME280;68408;53.952;27.612;2023-05-20T23:06:23;1022.8;;;13.6;42.2
53699;BME280;68408;53.952;27.612;2023-05-20T23:11:35;1022.8;;;13.5;42.4
53699;BME280;68408;53.952;27.612;2023-05-20T23:17:11;1022.8;;;13.6;42.5
53699;BME280;68408;53.952;27.612;2023-05-20T23:21:23;1022.8;;;13.6;42.3
53699;BME280;68408;53.952;27.612;2023-05-20T23:27:11;1022.8;;;13.5;42.6
53699;BME280;68408;53.952;27.612;2023-05-20T23:32:11;1022.8;;;13.5;42.7
53699;BME280;68408;53.952;27.612;2023-05-20T23:36:49;1022.8;;;13.4;42.8
53699;BME280;68408;53.952;27.612;2023-05-20T23:41:35;1022.8;;;13.4;42.8
53699;BME280;68408;53.952;27.612;2023-05-20T23:46:55;1022.8;;;13.3;43.5
53699;BME280;68408;53.952;27.612;2023-05-20T23:52:11;1022.8;;;13.3;43.4
53699;BME280;68408;53.952;27.612;2023-05-20T23:56:23;1022.8;;;13.1;44.1
